sensor_id;sensor_type;location;lat;lon;timestamp;temperature;humidity
54954;DHT22;40855;51.072;5.402;2022-11-15T00:00:09;10.50;99.90
54954;DHT22;40855;51.072;5.402;2022-11-15T00:02:35;10.50;99.90
54954;DHT22;40855;51.072;5.402;2022-11-15T00:05:01;10.60;99.90
54954;DHT22;40855;51.072;5.402;2022-11-15T00:07:26;10.60;99.90
54954;DHT22;40855;51.072;5.402;2022-11-15T00:09:52;10.60;99.90
54954;DHT22;40855;51.072;5.402;2022-11-15T00:12:18;10.60;99.90
54954;DHT22;40855;51.072;5.402;2022-11-15T00:14:43;10.70;99.90
54954;DHT22;40855;51.072;5.402;2022-11-15T00:17:09;10.70;99.90
54954;DHT22;40855;51.072;5.402;2022-11-15T00:19:35;10.70;99.90
54954;DHT22;40855;51.072;5.402;2022-11-15T00:22:00;10.70;99.90
54954;DHT22;40855;51.072;5.402;2022-11-15T00:24:26;10.80;99.90
54954;DHT22;40855;51.072;5.402;2022-11-15T00:26:51;10.80;99.90
54954;DHT22;40855;51.072;5.402;2022-11-15T00:29:17;10.80;99.90
54954;DHT22;40855;51.072;5.402;2022-11-15T00:31:43;10.80;99.90
54954;DHT22;40855;51.072;5.402;2022-11-15T00:34:09;10.90;99.90
54954;DHT22;40855;51.072;5.402;2022-11-15T00:36:36;10.90;99.90
54954;DHT22;40855;51.072;5.402;2022-11-15T00:39:04;10.90;99.90
54954;DHT22;40855;51.072;5.402;2022-11-15T00:41:30;10.90;99.90
54954;DHT22;40855;51.072;5.402;2022-11-15T00:43:56;10.90;99.90
54954;DHT22;40855;51.072;5.402;2022-11-15T00:46:22;10.90;99.90
54954;DHT22;40855;51.072;5.402;2022-11-15T00:48:47;11.00;99.90
54954;DHT22;40855;51.072;5.402;2022-11-15T00:51:13;11.00;99.90
54954;DHT22;40855;51.072;5.402;2022-11-15T00:53:39;10.90;99.90
54954;DHT22;40855;51.072;5.402;2022-11-15T00:56:05;11.00;99.90
54954;DHT22;40855;51.072;5.402;2022-11-15T00:58:30;11.00;99.90
54954;DHT22;40855;51.072;5.402;2022-11-15T01:00:56;11.00;99.90
54954;DHT22;40855;51.072;5.402;2022-11-15T01:03:22;11.10;99.90
54954;DHT22;40855;51.072;5.402;2022-11-15T01:05:47;11.10;99.90
54954;DHT22;40855;51.072;5.402;2022-11-15T01:08:15;11.10;99.90
54954;DHT22;40855;51.072;5.402;2022-11-15T01:10:41;11.10;99.90
54954;DHT22;40855;51.072;5.402;2022-11-15T01:13:07;11.10;99.90
54954;DHT22;40855;51.072;5.402;2022-11-15T01:15:33;11.20;99.90
54954;DHT22;40855;51.072;5.402;2022-11-15T01:17:59;11.20;99.90
54954;DHT22;40855;51.072;5.402;2022-11-15T01:20:24;11.20;99.90
54954;DHT22;40855;51.072;5.402;2022-11-15T01:22:50;11.20;99.90
54954;DHT22;40855;51.072;5.402;2022-11-15T01:25:16;11.20;99.90
54954;DHT22;40855;51.072;5.402;2022-11-15T01:27:41;11.20;99.90
54954;DHT22;40855;51.072;5.402;2022-11-15T01:30:07;11.30;99.90
54954;DHT22;40855;51.072;5.402;2022-11-15T01:32:33;11.30;99.90
54954;DHT22;40855;51.072;5.402;2022-11-15T01:34:59;11.30;99.90
54954;DHT22;40855;51.072;5.402;2022-11-15T01:37:25;11.30;99.90
54954;DHT22;40855;51.072;5.402;2022-11-15T01:39:50;11.30;99.90
54954;DHT22;40855;51.072;5.402;2022-11-15T01:42:16;11.40;99.90
54954;DHT22;40855;51.072;5.402;2022-11-15T01:44:47;11.30;99.90
54954;DHT22;40855;51.072;5.402;2022-11-15T01:47:35;11.40;99.90
54954;DHT22;40855;51.072;5.402;2022-11-15T01:50:09;11.30;99.90
54954;DHT22;40855;51.072;5.402;2022-11-15T01:52:36;11.40;99.90
54954;DHT22;40855;51.072;5.402;2022-11-15T01:57:28;11.40;99.90
54954;DHT22;40855;51.072;5.402;2022-11-15T01:59:55;11.40;99.90
54954;DHT22;40855;51.072;5.402;2022-11-15T02:02:22;11.40;99.90
54954;DHT22;40855;51.072;5.402;2022-11-15T02:04:47;11.40;99.90
54954;DHT22;40855;51.072;5.402;2022-11-15T02:07:16;11.40;99.90
54954;DHT22;40855;51.072;5.402;2022-11-15T02:09:44;11.40;99.90
54954;DHT22;40855;51.072;5.402;2022-11-15T02:12:10;11.50;99.90
54954;DHT22;40855;51.072;5.402;2022-11-15T02:14:39;11.50;99.90
54954;DHT22;40855;51.072;5.402;2022-11-15T02:20:29;11.60;99.90
54954;DHT22;40855;51.072;5.402;2022-11-15T02:23:25;11.60;99.90
54954;DHT22;40855;51.072;5.402;2022-11-15T02:26:19;11.60;99.90
54954;DHT22;40855;51.072;5.402;2022-11-15T02:29:11;11.60;99.90
54954;DHT22;40855;51.072;5.402;2022-11-15T02:40:17;11.60;99.90
54954;DHT22;40855;51.072;5.402;2022-11-15T02:42:49;11.60;99.90
54954;DHT22;40855;51.072;5.402;2022-11-15T02:45:40;11.60;99.90
54954;DHT22;40855;51.072;5.402;2022-11-15T02:48:11;11.70;99.90
54954;DHT22;40855;51.072;5.402;2022-11-15T02:50:37;11.70;99.90
54954;DHT22;40855;51.072;5.402;2022-11-15T02:53:03;11.60;99.90
54954;DHT22;40855;51.072;5.402;2022-11-15T02:55:34;11.70;99.90
54954;DHT22;40855;51.072;5.402;2022-11-15T03:00:50;11.70;99.90
54954;DHT22;40855;51.072;5.402;2022-11-15T03:06:09;11.70;99.90
54954;DHT22;40855;51.072;5.402;2022-11-15T03:11:16;11.70;99.90
54954;DHT22;40855;51.072;5.402;2022-11-15T03:13:47;11.70;99.90
54954;DHT22;40855;51.072;5.402;2022-11-15T03:18:47;11.70;99.90
54954;DHT22;40855;51.072;5.402;2022-11-15T03:21:16;11.70;99.90
54954;DHT22;40855;51.072;5.402;2022-11-15T03:23:44;11.70;99.90
54954;DHT22;40855;51.072;5.402;2022-11-15T03:26:13;11.80;99.90
54954;DHT22;40855;51.072;5.402;2022-11-15T03:28:54;11.80;99.90
54954;DHT22;40855;51.072;5.402;2022-11-15T03:31:22;11.80;99.90
54954;DHT22;40855;51.072;5.402;2022-11-15T03:34:13;11.80;99.90
54954;DHT22;40855;51.072;5.402;2022-11-15T03:36:43;11.80;99.90
54954;DHT22;40855;51.072;5.402;2022-11-15T03:39:09;11.80;99.90
54954;DHT22;40855;51.072;5.402;2022-11-15T03:42:01;11.80;99.90
54954;DHT22;40855;51.072;5.402;2022-11-15T03:45:01;11.80;99.90
54954;DHT22;40855;51.072;5.402;2022-11-15T03:47:32;11.90;99.90
54954;DHT22;40855;51.072;5.402;2022-11-15T03:50:03;11.80;99.90
54954;DHT22;40855;51.072;5.402;2022-11-15T03:52:32;11.80;99.90
54954;DHT22;40855;51.072;5.402;2022-11-15T03:55:01;11.80;99.90
54954;DHT22;40855;51.072;5.402;2022-11-15T03:57:28;11.80;99.90
54954;DHT22;40855;51.072;5.402;2022-11-15T03:59:54;11.80;99.90
54954;DHT22;40855;51.072;5.402;2022-11-15T04:02:20;11.80;99.90
54954;DHT22;40855;51.072;5.402;2022-11-15T04:04:45;11.80;99.90
54954;DHT22;40855;51.072;5.402;2022-11-15T04:07:11;11.80;99.90
54954;DHT22;40855;51.072;5.402;2022-11-15T04:09:37;11.80;99.90
54954;DHT22;40855;51.072;5.402;2022-11-15T04:12:23;11.80;99.90
54954;DHT22;40855;51.072;5.402;2022-11-15T04:14:59;11.80;99.90
54954;DHT22;40855;51.072;5.402;2022-11-15T04:17:54;11.80;99.90
54954;DHT22;40855;51.072;5.402;2022-11-15T04:20:28;11.80;99.90
54954;DHT22;40855;51.072;5.402;2022-11-15T04:23:14;11.80;99.90
54954;DHT22;40855;51.072;5.402;2022-11-15T04:26:02;11.80;99.90
54954;DHT22;40855;51.072;5.402;2022-11-15T04:28:28;11.80;99.90
54954;DHT22;40855;51.072;5.402;2022-11-15T04:30:54;11.80;99.90
54954;DHT22;40855;51.072;5.402;2022-11-15T04:33:20;11.80;99.90
54954;DHT22;40855;51.072;5.402;2022-11-15T04:35:46;11.80;99.90
54954;DHT22;40855;51.072;5.402;2022-11-15T04:38:32;11.80;99.90
54954;DHT22;40855;51.072;5.402;2022-11-15T04:40:58;11.80;99.90
54954;DHT22;40855;51.072;5.402;2022-11-15T04:43:24;11.80;99.90
54954;DHT22;40855;51.072;5.402;2022-11-15T04:45:49;11.70;99.90
54954;DHT22;40855;51.072;5.402;2022-11-15T04:48:15;11.80;99.90
54954;DHT22;40855;51.072;5.402;2022-11-15T04:50:41;11.80;99.90
54954;DHT22;40855;51.072;5.402;2022-11-15T04:53:06;11.70;99.90
54954;DHT22;40855;51.072;5.402;2022-11-15T04:55:32;11.70;99.90
54954;DHT22;40855;51.072;5.402;2022-11-15T04:58:01;11.70;99.90
54954;DHT22;40855;51.072;5.402;2022-11-15T05:00:28;11.80;99.90
54954;DHT22;40855;51.072;5.402;2022-11-15T05:02:55;11.70;99.90
54954;DHT22;40855;51.072;5.402;2022-11-15T05:05:39;11.70;99.90
54954;DHT22;40855;51.072;5.402;2022-11-15T05:08:04;11.80;99.90
54954;DHT22;40855;51.072;5.402;2022-11-15T05:10:30;11.70;99.90
54954;DHT22;40855;51.072;5.402;2022-11-15T05:12:56;11.80;99.90
54954;DHT22;40855;51.072;5.402;2022-11-15T05:15:21;11.80;99.90
54954;DHT22;40855;51.072;5.402;2022-11-15T05:17:47;11.80;99.90
54954;DHT22;40855;51.072;5.402;2022-11-15T05:20:13;11.80;99.90
54954;DHT22;40855;51.072;5.402;2022-11-15T05:22:39;11.80;99.90
54954;DHT22;40855;51.072;5.402;2022-11-15T05:25:05;11.80;99.90
54954;DHT22;40855;51.072;5.402;2022-11-15T05:27:31;11.80;99.90
54954;DHT22;40855;51.072;5.402;2022-11-15T05:29:57;11.70;99.90
54954;DHT22;40855;51.072;5.402;2022-11-15T05:32:23;11.80;99.90
54954;DHT22;40855;51.072;5.402;2022-11-15T05:34:49;11.80;99.90
54954;DHT22;40855;51.072;5.402;2022-11-15T05:37:15;11.70;99.90
54954;DHT22;40855;51.072;5.402;2022-11-15T05:39:41;11.70;99.90
54954;DHT22;40855;51.072;5.402;2022-11-15T05:42:11;11.70;99.90
54954;DHT22;40855;51.072;5.402;2022-11-15T05:44:39;11.70;99.90
54954;DHT22;40855;51.072;5.402;2022-11-15T05:47:08;11.70;99.90
54954;DHT22;40855;51.072;5.402;2022-11-15T05:49:37;11.70;99.90
54954;DHT22;40855;51.072;5.402;2022-11-15T05:52:05;11.70;99.90
54954;DHT22;40855;51.072;5.402;2022-11-15T05:54:33;11.60;99.90
54954;DHT22;40855;51.072;5.402;2022-11-15T05:56:59;11.60;99.90
54954;DHT22;40855;51.072;5.402;2022-11-15T05:59:25;11.60;99.90
54954;DHT22;40855;51.072;5.402;2022-11-15T06:01:53;11.60;99.90
54954;DHT22;40855;51.072;5.402;2022-11-15T06:04:18;11.60;99.90
54954;DHT22;40855;51.072;5.402;2022-11-15T06:06:44;11.60;99.90
54954;DHT22;40855;51.072;5.402;2022-11-15T06:09:10;11.50;99.90
54954;DHT22;40855;51.072;5.402;2022-11-15T06:11:35;11.60;99.90
54954;DHT22;40855;51.072;5.402;2022-11-15T06:14:01;11.50;99.90
54954;DHT22;40855;51.072;5.402;2022-11-15T06:16:27;11.50;99.90
54954;DHT22;40855;51.072;5.402;2022-11-15T06:18:52;11.50;99.90
54954;DHT22;40855;51.072;5.402;2022-11-15T06:21:18;11.40;99.90
54954;DHT22;40855;51.072;5.402;2022-11-15T06:23:44;11.50;99.90
54954;DHT22;40855;51.072;5.402;2022-11-15T06:26:09;11.40;99.90
54954;DHT22;40855;51.072;5.402;2022-11-15T06:28:35;11.40;99.90
54954;DHT22;40855;51.072;5.402;2022-11-15T06:31:09;11.40;99.90
54954;DHT22;40855;51.072;5.402;2022-11-15T06:33:37;11.40;99.90
54954;DHT22;40855;51.072;5.402;2022-11-15T06:36:05;11.40;99.90
54954;DHT22;40855;51.072;5.402;2022-11-15T06:38:32;11.40;99.90
54954;DHT22;40855;51.072;5.402;2022-11-15T06:41:06;11.40;99.90
54954;DHT22;40855;51.072;5.402;2022-11-15T06:43:32;11.30;99.90
54954;DHT22;40855;51.072;5.402;2022-11-15T06:45:59;11.30;99.90
54954;DHT22;40855;51.072;5.402;2022-11-15T06:48:25;11.40;99.90
54954;DHT22;40855;51.072;5.402;2022-11-15T06:50:55;11.40;99.90
54954;DHT22;40855;51.072;5.402;2022-11-15T06:53:21;11.40;99.90
54954;DHT22;40855;51.072;5.402;2022-11-15T06:55:47;11.30;99.90
54954;DHT22;40855;51.072;5.402;2022-11-15T06:58:13;11.30;99.90
54954;DHT22;40855;51.072;5.402;2022-11-15T07:00:39;11.40;99.90
54954;DHT22;40855;51.072;5.402;2022-11-15T07:03:05;11.30;99.90
54954;DHT22;40855;51.072;5.402;2022-11-15T07:05:31;11.30;99.90
54954;DHT22;40855;51.072;5.402;2022-11-15T07:07:57;11.30;99.90
54954;DHT22;40855;51.072;5.402;2022-11-15T07:10:24;11.30;99.90
54954;DHT22;40855;51.072;5.402;2022-11-15T07:12:54;11.30;99.90
54954;DHT22;40855;51.072;5.402;2022-11-15T07:15:21;11.30;99.90
54954;DHT22;40855;51.072;5.402;2022-11-15T07:17:47;11.30;99.90
54954;DHT22;40855;51.072;5.402;2022-11-15T07:20:13;11.30;99.90
54954;DHT22;40855;51.072;5.402;2022-11-15T07:22:40;11.30;99.90
54954;DHT22;40855;51.072;5.402;2022-11-15T07:25:06;11.30;99.90
54954;DHT22;40855;51.072;5.402;2022-11-15T07:27:32;11.30;99.90
54954;DHT22;40855;51.072;5.402;2022-11-15T07:29:58;11.30;99.90
54954;DHT22;40855;51.072;5.402;2022-11-15T07:32:24;11.20;99.90
54954;DHT22;40855;51.072;5.402;2022-11-15T07:34:49;11.20;99.90
54954;DHT22;40855;51.072;5.402;2022-11-15T07:37:15;11.20;99.90
54954;DHT22;40855;51.072;5.402;2022-11-15T07:39:42;11.20;99.90
54954;DHT22;40855;51.072;5.402;2022-11-15T07:42:08;11.20;99.90
54954;DHT22;40855;51.072;5.402;2022-11-15T07:44:52;11.20;99.90
54954;DHT22;40855;51.072;5.402;2022-11-15T07:47:18;11.10;99.90
54954;DHT22;40855;51.072;5.402;2022-11-15T07:49:44;11.20;99.90
54954;DHT22;40855;51.072;5.402;2022-11-15T07:52:11;11.10;99.90
54954;DHT22;40855;51.072;5.402;2022-11-15T07:54:37;11.10;99.90
54954;DHT22;40855;51.072;5.402;2022-11-15T07:57:03;11.10;99.90
54954;DHT22;40855;51.072;5.402;2022-11-15T07:59:29;11.20;99.90
54954;DHT22;40855;51.072;5.402;2022-11-15T08:01:55;11.10;99.90
54954;DHT22;40855;51.072;5.402;2022-11-15T08:04:20;11.10;99.90
54954;DHT22;40855;51.072;5.402;2022-11-15T08:06:46;11.10;99.90
54954;DHT22;40855;51.072;5.402;2022-11-15T08:09:12;11.10;99.90
54954;DHT22;40855;51.072;5.402;2022-11-15T08:11:37;11.10;99.90
54954;DHT22;40855;51.072;5.402;2022-11-15T08:14:03;11.10;99.90
54954;DHT22;40855;51.072;5.402;2022-11-15T08:16:29;11.10;99.90
54954;DHT22;40855;51.072;5.402;2022-11-15T08:18:54;11.10;99.90
54954;DHT22;40855;51.072;5.402;2022-11-15T08:21:21;11.10;99.90
54954;DHT22;40855;51.072;5.402;2022-11-15T08:23:47;11.20;99.90
54954;DHT22;40855;51.072;5.402;2022-11-15T08:26:13;11.20;99.90
54954;DHT22;40855;51.072;5.402;2022-11-15T08:28:39;11.20;99.90
54954;DHT22;40855;51.072;5.402;2022-11-15T08:31:04;11.30;99.90
54954;DHT22;40855;51.072;5.402;2022-11-15T08:33:31;11.30;99.90
54954;DHT22;40855;51.072;5.402;2022-11-15T08:35:59;11.30;99.90
54954;DHT22;40855;51.072;5.402;2022-11-15T08:38:25;11.30;99.90
54954;DHT22;40855;51.072;5.402;2022-11-15T08:41:01;11.30;99.90
54954;DHT22;40855;51.072;5.402;2022-11-15T08:43:27;11.30;99.90
54954;DHT22;40855;51.072;5.402;2022-11-15T08:45:56;11.40;99.90
54954;DHT22;40855;51.072;5.402;2022-11-15T08:48:22;11.40;99.90
54954;DHT22;40855;51.072;5.402;2022-11-15T08:50:48;11.40;99.90
54954;DHT22;40855;51.072;5.402;2022-11-15T08:53:13;11.40;99.90
54954;DHT22;40855;51.072;5.402;2022-11-15T08:55:40;11.40;99.90
54954;DHT22;40855;51.072;5.402;2022-11-15T08:58:06;11.40;99.90
54954;DHT22;40855;51.072;5.402;2022-11-15T09:00:32;11.40;99.90
54954;DHT22;40855;51.072;5.402;2022-11-15T09:02:58;11.50;99.90
54954;DHT22;40855;51.072;5.402;2022-11-15T09:05:25;11.50;99.90
54954;DHT22;40855;51.072;5.402;2022-11-15T09:07:54;11.50;99.90
54954;DHT22;40855;51.072;5.402;2022-11-15T09:10:20;11.50;99.90
54954;DHT22;40855;51.072;5.402;2022-11-15T09:12:46;11.60;99.90
54954;DHT22;40855;51.072;5.402;2022-11-15T09:15:14;11.60;99.90
54954;DHT22;40855;51.072;5.402;2022-11-15T09:17:40;11.60;99.90
54954;DHT22;40855;51.072;5.402;2022-11-15T09:20:06;11.60;99.90
54954;DHT22;40855;51.072;5.402;2022-11-15T09:22:32;11.60;99.90
54954;DHT22;40855;51.072;5.402;2022-11-15T09:24:58;11.60;99.90
54954;DHT22;40855;51.072;5.402;2022-11-15T09:27:30;11.70;99.90
54954;DHT22;40855;51.072;5.402;2022-11-15T09:29:56;11.80;99.90
54954;DHT22;40855;51.072;5.402;2022-11-15T09:32:22;11.80;99.90
54954;DHT22;40855;51.072;5.402;2022-11-15T09:34:51;11.80;99.90
54954;DHT22;40855;51.072;5.402;2022-11-15T09:37:16;11.80;99.90
54954;DHT22;40855;51.072;5.402;2022-11-15T09:39:42;11.80;99.90
54954;DHT22;40855;51.072;5.402;2022-11-15T09:50:47;11.80;99.90
54954;DHT22;40855;51.072;5.402;2022-11-15T09:53:28;11.90;99.90
54954;DHT22;40855;51.072;5.402;2022-11-15T09:56:03;11.90;99.90
54954;DHT22;40855;51.072;5.402;2022-11-15T09:59:34;11.90;99.90
54954;DHT22;40855;51.072;5.402;2022-11-15T10:04:14;11.90;99.90
54954;DHT22;40855;51.072;5.402;2022-11-15T10:06:44;11.90;99.90
54954;DHT22;40855;51.072;5.402;2022-11-15T10:09:16;11.90;99.90
54954;DHT22;40855;51.072;5.402;2022-11-15T10:11:44;11.90;99.90
54954;DHT22;40855;51.072;5.402;2022-11-15T10:14:21;11.90;99.90
54954;DHT22;40855;51.072;5.402;2022-11-15T10:17:29;11.90;99.90
54954;DHT22;40855;51.072;5.402;2022-11-15T10:20:13;11.90;99.90
54954;DHT22;40855;51.072;5.402;2022-11-15T10:22:47;11.90;99.90
54954;DHT22;40855;51.072;5.402;2022-11-15T10:30:43;11.90;99.90
54954;DHT22;40855;51.072;5.402;2022-11-15T10:33:30;12.00;99.90
54954;DHT22;40855;51.072;5.402;2022-11-15T10:36:19;12.00;99.90
54954;DHT22;40855;51.072;5.402;2022-11-15T10:43:41;12.10;99.90
54954;DHT22;40855;51.072;5.402;2022-11-15T10:46:23;12.20;99.90
54954;DHT22;40855;51.072;5.402;2022-11-15T10:48:49;12.20;99.90
54954;DHT22;40855;51.072;5.402;2022-11-15T10:51:27;12.30;99.90
54954;DHT22;40855;51.072;5.402;2022-11-15T10:53:56;12.30;99.90
54954;DHT22;40855;51.072;5.402;2022-11-15T10:56:23;12.40;99.90
54954;DHT22;40855;51.072;5.402;2022-11-15T10:58:55;12.40;99.90
54954;DHT22;40855;51.072;5.402;2022-11-15T11:01:28;12.50;99.90
54954;DHT22;40855;51.072;5.402;2022-11-15T11:04:03;12.50;99.90
54954;DHT22;40855;51.072;5.402;2022-11-15T11:06:30;12.60;99.90
54954;DHT22;40855;51.072;5.402;2022-11-15T11:09:03;12.60;99.90
54954;DHT22;40855;51.072;5.402;2022-11-15T11:11:51;12.60;99.90
54954;DHT22;40855;51.072;5.402;2022-11-15T11:14:34;12.60;99.90
54954;DHT22;40855;51.072;5.402;2022-11-15T11:17:13;12.60;99.90
54954;DHT22;40855;51.072;5.402;2022-11-15T11:25:50;12.60;99.90
54954;DHT22;40855;51.072;5.402;2022-11-15T11:38:49;12.70;99.90
54954;DHT22;40855;51.072;5.402;2022-11-15T11:49:20;12.80;99.90
54954;DHT22;40855;51.072;5.402;2022-11-15T11:57:06;12.90;99.90
54954;DHT22;40855;51.072;5.402;2022-11-15T11:59:50;12.90;99.90
54954;DHT22;40855;51.072;5.402;2022-11-15T12:02:39;12.90;99.90
54954;DHT22;40855;51.072;5.402;2022-11-15T12:05:27;12.90;99.90
54954;DHT22;40855;51.072;5.402;2022-11-15T12:08:01;12.90;99.90
54954;DHT22;40855;51.072;5.402;2022-11-15T12:10:30;12.90;99.90
54954;DHT22;40855;51.072;5.402;2022-11-15T12:15:39;13.00;99.90
54954;DHT22;40855;51.072;5.402;2022-11-15T12:18:11;12.90;99.90
54954;DHT22;40855;51.072;5.402;2022-11-15T12:20:41;12.90;99.90
54954;DHT22;40855;51.072;5.402;2022-11-15T12:23:17;13.00;99.90
54954;DHT22;40855;51.072;5.402;2022-11-15T12:26:01;13.00;99.90
54954;DHT22;40855;51.072;5.402;2022-11-15T12:33:37;13.00;99.90
54954;DHT22;40855;51.072;5.402;2022-11-15T12:39:07;13.10;99.90
54954;DHT22;40855;51.072;5.402;2022-11-15T12:41:41;13.10;99.90
54954;DHT22;40855;51.072;5.402;2022-11-15T12:44:13;13.20;99.90
54954;DHT22;40855;51.072;5.402;2022-11-15T13:02:19;13.20;99.90
54954;DHT22;40855;51.072;5.402;2022-11-15T13:04:47;13.20;99.90
54954;DHT22;40855;51.072;5.402;2022-11-15T13:17:51;13.40;99.90
54954;DHT22;40855;51.072;5.402;2022-11-15T13:22:59;13.40;99.90
54954;DHT22;40855;51.072;5.402;2022-11-15T13:33:25;13.40;99.90
54954;DHT22;40855;51.072;5.402;2022-11-15T13:35:56;13.40;99.90
54954;DHT22;40855;51.072;5.402;2022-11-15T13:38:35;13.40;99.90
54954;DHT22;40855;51.072;5.402;2022-11-15T13:41:19;13.40;99.90
54954;DHT22;40855;51.072;5.402;2022-11-15T13:43:47;13.40;99.90
54954;DHT22;40855;51.072;5.402;2022-11-15T13:46:16;13.50;99.90
54954;DHT22;40855;51.072;5.402;2022-11-15T13:48:44;13.40;99.90
54954;DHT22;40855;51.072;5.402;2022-11-15T13:51:21;13.50;99.90
54954;DHT22;40855;51.072;5.402;2022-11-15T13:53:56;13.50;99.90
54954;DHT22;40855;51.072;5.402;2022-11-15T13:56:23;13.50;99.90
54954;DHT22;40855;51.072;5.402;2022-11-15T13:58:51;13.40;99.90
54954;DHT22;40855;51.072;5.402;2022-11-15T14:01:20;13.50;99.90
54954;DHT22;40855;51.072;5.402;2022-11-15T14:03:55;13.50;99.90
54954;DHT22;40855;51.072;5.402;2022-11-15T14:06:24;13.40;99.90
54954;DHT22;40855;51.072;5.402;2022-11-15T14:09:41;13.50;99.90
54954;DHT22;40855;51.072;5.402;2022-11-15T14:11:52;13.50;99.90
54954;DHT22;40855;51.072;5.402;2022-11-15T14:14:21;13.50;99.90
54954;DHT22;40855;51.072;5.402;2022-11-15T14:17:17;13.50;99.90
54954;DHT22;40855;51.072;5.402;2022-11-15T14:19:44;13.50;99.90
54954;DHT22;40855;51.072;5.402;2022-11-15T14:22:24;13.60;99.90
54954;DHT22;40855;51.072;5.402;2022-11-15T14:27:38;13.60;99.90
54954;DHT22;40855;51.072;5.402;2022-11-15T14:30:04;13.60;99.90
54954;DHT22;40855;51.072;5.402;2022-11-15T14:32:48;13.60;99.90
54954;DHT22;40855;51.072;5.402;2022-11-15T14:35:20;13.60;99.90
54954;DHT22;40855;51.072;5.402;2022-11-15T14:37:46;13.60;99.90
54954;DHT22;40855;51.072;5.402;2022-11-15T14:40:18;13.60;99.90
54954;DHT22;40855;51.072;5.402;2022-11-15T14:42:45;13.60;99.90
54954;DHT22;40855;51.072;5.402;2022-11-15T14:45:14;13.60;99.90
54954;DHT22;40855;51.072;5.402;2022-11-15T14:47:41;13.60;99.90
54954;DHT22;40855;51.072;5.402;2022-11-15T14:50:10;13.60;99.90
54954;DHT22;40855;51.072;5.402;2022-11-15T14:52:36;13.60;99.90
54954;DHT22;40855;51.072;5.402;2022-11-15T14:57:41;13.60;99.90
54954;DHT22;40855;51.072;5.402;2022-11-15T15:00:07;13.60;99.90
54954;DHT22;40855;51.072;5.402;2022-11-15T15:02:34;13.60;99.90
54954;DHT22;40855;51.072;5.402;2022-11-15T15:04:59;13.60;99.90
54954;DHT22;40855;51.072;5.402;2022-11-15T15:07:28;13.60;99.90
54954;DHT22;40855;51.072;5.402;2022-11-15T15:09:54;13.60;99.90
54954;DHT22;40855;51.072;5.402;2022-11-15T15:12:22;13.60;99.90
54954;DHT22;40855;51.072;5.402;2022-11-15T15:14:49;13.60;99.90
54954;DHT22;40855;51.072;5.402;2022-11-15T15:17:16;13.60;99.90
54954;DHT22;40855;51.072;5.402;2022-11-15T15:19:42;13.60;99.90
54954;DHT22;40855;51.072;5.402;2022-11-15T15:22:16;13.60;99.90
54954;DHT22;40855;51.072;5.402;2022-11-15T15:24:43;13.60;99.90
54954;DHT22;40855;51.072;5.402;2022-11-15T15:27:09;13.60;99.90
54954;DHT22;40855;51.072;5.402;2022-11-15T15:29:35;13.60;99.90
54954;DHT22;40855;51.072;5.402;2022-11-15T15:32:00;13.60;99.90
54954;DHT22;40855;51.072;5.402;2022-11-15T15:34:26;13.60;99.90
54954;DHT22;40855;51.072;5.402;2022-11-15T15:39:54;13.60;99.90
54954;DHT22;40855;51.072;5.402;2022-11-15T15:42:21;13.60;99.90
54954;DHT22;40855;51.072;5.402;2022-11-15T15:44:48;13.60;99.90
54954;DHT22;40855;51.072;5.402;2022-11-15T15:47:20;13.50;99.90
54954;DHT22;40855;51.072;5.402;2022-11-15T15:49:46;13.50;99.90
54954;DHT22;40855;51.072;5.402;2022-11-15T15:52:12;13.50;99.90
54954;DHT22;40855;51.072;5.402;2022-11-15T15:54:39;13.50;99.90
54954;DHT22;40855;51.072;5.402;2022-11-15T15:57:06;13.40;99.90
54954;DHT22;40855;51.072;5.402;2022-11-15T15:59:32;13.50;99.90
54954;DHT22;40855;51.072;5.402;2022-11-15T16:01:57;13.40;99.90
54954;DHT22;40855;51.072;5.402;2022-11-15T16:04:23;13.30;99.90
54954;DHT22;40855;51.072;5.402;2022-11-15T16:06:49;13.30;99.90
54954;DHT22;40855;51.072;5.402;2022-11-15T16:09:18;13.20;99.90
54954;DHT22;40855;51.072;5.402;2022-11-15T16:12:04;13.20;99.90
54954;DHT22;40855;51.072;5.402;2022-11-15T16:14:31;13.10;99.90
54954;DHT22;40855;51.072;5.402;2022-11-15T16:16:57;13.10;99.90
54954;DHT22;40855;51.072;5.402;2022-11-15T16:19:22;13.10;99.90
54954;DHT22;40855;51.072;5.402;2022-11-15T16:21:48;13.00;99.90
54954;DHT22;40855;51.072;5.402;2022-11-15T16:24:14;13.00;99.90
54954;DHT22;40855;51.072;5.402;2022-11-15T16:26:40;13.00;99.90
54954;DHT22;40855;51.072;5.402;2022-11-15T16:29:07;12.90;99.90
54954;DHT22;40855;51.072;5.402;2022-11-15T16:31:34;12.90;99.90
54954;DHT22;40855;51.072;5.402;2022-11-15T16:34:00;12.80;99.90
54954;DHT22;40855;51.072;5.402;2022-11-15T16:36:26;12.80;99.90
54954;DHT22;40855;51.072;5.402;2022-11-15T16:38:52;12.80;99.90
54954;DHT22;40855;51.072;5.402;2022-11-15T16:41:18;12.80;99.90
54954;DHT22;40855;51.072;5.402;2022-11-15T16:43:45;12.80;99.90
54954;DHT22;40855;51.072;5.402;2022-11-15T16:48:47;12.80;99.90
54954;DHT22;40855;51.072;5.402;2022-11-15T16:51:13;12.70;99.90
54954;DHT22;40855;51.072;5.402;2022-11-15T16:53:39;12.70;99.90
54954;DHT22;40855;51.072;5.402;2022-11-15T16:56:34;12.70;99.90
54954;DHT22;40855;51.072;5.402;2022-11-15T16:59:00;12.70;99.90
54954;DHT22;40855;51.072;5.402;2022-11-15T17:01:29;12.70;99.90
54954;DHT22;40855;51.072;5.402;2022-11-15T17:03:55;12.60;99.90
54954;DHT22;40855;51.072;5.402;2022-11-15T17:06:22;12.60;99.90
54954;DHT22;40855;51.072;5.402;2022-11-15T17:08:48;12.60;99.90
54954;DHT22;40855;51.072;5.402;2022-11-15T17:11:16;12.60;99.90
54954;DHT22;40855;51.072;5.402;2022-11-15T17:13:43;12.60;99.90
54954;DHT22;40855;51.072;5.402;2022-11-15T17:16:15;12.50;99.90
54954;DHT22;40855;51.072;5.402;2022-11-15T17:18:41;12.60;99.90
54954;DHT22;40855;51.072;5.402;2022-11-15T17:21:14;12.50;99.90
54954;DHT22;40855;51.072;5.402;2022-11-15T17:23:40;12.50;99.90
54954;DHT22;40855;51.072;5.402;2022-11-15T17:26:06;12.50;99.90
54954;DHT22;40855;51.072;5.402;2022-11-15T17:28:34;12.50;99.90
54954;DHT22;40855;51.072;5.402;2022-11-15T17:31:00;12.60;99.90
54954;DHT22;40855;51.072;5.402;2022-11-15T17:33:26;12.50;99.90
54954;DHT22;40855;51.072;5.402;2022-11-15T17:35:56;12.50;99.90
54954;DHT22;40855;51.072;5.402;2022-11-15T17:38:22;12.50;99.90
54954;DHT22;40855;51.072;5.402;2022-11-15T17:40:48;12.50;99.90
54954;DHT22;40855;51.072;5.402;2022-11-15T17:43:13;12.50;99.90
54954;DHT22;40855;51.072;5.402;2022-11-15T17:45:41;12.50;99.90
54954;DHT22;40855;51.072;5.402;2022-11-15T17:48:07;12.50;99.90
54954;DHT22;40855;51.072;5.402;2022-11-15T17:50:32;12.50;99.90
54954;DHT22;40855;51.072;5.402;2022-11-15T17:52:58;12.50;99.90
54954;DHT22;40855;51.072;5.402;2022-11-15T17:55:24;12.50;99.90
54954;DHT22;40855;51.072;5.402;2022-11-15T17:57:50;12.50;99.90